sensor_id;sensor_type;location;lat;lon;timestamp;temperature;humidity
5136;DHT22;2586;48.710;9.202;2023-04-01T00:02:06;7.70;99.90
5136;DHT22;2586;48.710;9.202;2023-04-01T00:04:31;7.70;1.00
5136;DHT22;2586;48.710;9.202;2023-04-01T00:06:57;7.80;1.00
5136;DHT22;2586;48.710;9.202;2023-04-01T00:09:23;7.80;1.00
5136;DHT22;2586;48.710;9.202;2023-04-01T00:11:49;7.80;1.00
5136;DHT22;2586;48.710;9.202;2023-04-01T00:14:14;7.80;1.00
5136;DHT22;2586;48.710;9.202;2023-04-01T00:16:40;7.80;1.00
5136;DHT22;2586;48.710;9.202;2023-04-01T00:19:06;7.80;99.90
5136;DHT22;2586;48.710;9.202;2023-04-01T00:21:31;7.80;1.00
5136;DHT22;2586;48.710;9.202;2023-04-01T00:23:57;7.80;1.00
5136;DHT22;2586;48.710;9.202;2023-04-01T00:26:23;7.80;1.00
5136;DHT22;2586;48.710;9.202;2023-04-01T00:28:50;7.70;1.00
5136;DHT22;2586;48.710;9.202;2023-04-01T00:31:16;7.70;1.00
5136;DHT22;2586;48.710;9.202;2023-04-01T00:33:41;7.70;1.00
5136;DHT22;2586;48.710;9.202;2023-04-01T00:36:11;7.70;99.90
5136;DHT22;2586;48.710;9.202;2023-04-01T00:38:37;7.80;94.50
5136;DHT22;2586;48.710;9.202;2023-04-01T00:41:03;7.80;99.90
5136;DHT22;2586;48.710;9.202;2023-04-01T00:43:29;7.80;1.00
5136;DHT22;2586;48.710;9.202;2023-04-01T00:45:55;7.80;1.00
5136;DHT22;2586;48.710;9.202;2023-04-01T00:48:28;7.90;1.00
5136;DHT22;2586;48.710;9.202;2023-04-01T00:51:17;7.90;1.00
5136;DHT22;2586;48.710;9.202;2023-04-01T00:53:47;7.90;1.00
5136;DHT22;2586;48.710;9.202;2023-04-01T00:56:17;7.90;1.00
5136;DHT22;2586;48.710;9.202;2023-04-01T00:58:47;7.90;99.90
5136;DHT22;2586;48.710;9.202;2023-04-01T01:01:14;7.90;99.90
5136;DHT22;2586;48.710;9.202;2023-04-01T01:03:40;7.90;99.90
5136;DHT22;2586;48.710;9.202;2023-04-01T01:11:35;7.90;1.00
5136;DHT22;2586;48.710;9.202;2023-04-01T01:16:58;7.80;99.90
5136;DHT22;2586;48.710;9.202;2023-04-01T01:24:52;7.80;1.00
5136;DHT22;2586;48.710;9.202;2023-04-01T01:27:20;7.80;1.00
5136;DHT22;2586;48.710;9.202;2023-04-01T01:30:01;7.90;24.90
5136;DHT22;2586;48.710;9.202;2023-04-01T01:32:55;7.80;25.40
5136;DHT22;2586;48.710;9.202;2023-04-01T01:35:31;7.80;1.00
5136;DHT22;2586;48.710;9.202;2023-04-01T01:38:11;7.80;1.00
5136;DHT22;2586;48.710;9.202;2023-04-01T01:40:42;7.80;1.00
5136;DHT22;2586;48.710;9.202;2023-04-01T01:43:10;7.80;1.00
5136;DHT22;2586;48.710;9.202;2023-04-01T01:45:40;7.80;1.00
5136;DHT22;2586;48.710;9.202;2023-04-01T01:48:09;7.80;1.00
5136;DHT22;2586;48.710;9.202;2023-04-01T01:50:36;7.80;99.90
5136;DHT22;2586;48.710;9.202;2023-04-01T01:53:05;7.70;99.90
5136;DHT22;2586;48.710;9.202;2023-04-01T01:55:37;7.70;1.00
5136;DHT22;2586;48.710;9.202;2023-04-01T02:00:37;7.60;96.90
5136;DHT22;2586;48.710;9.202;2023-04-01T02:03:04;7.60;99.90
5136;DHT22;2586;48.710;9.202;2023-04-01T02:05:31;7.60;1.00
5136;DHT22;2586;48.710;9.202;2023-04-01T02:08:07;7.60;99.90
5136;DHT22;2586;48.710;9.202;2023-04-01T02:10:36;7.60;99.90
5136;DHT22;2586;48.710;9.202;2023-04-01T02:13:09;7.60;1.00
5136;DHT22;2586;48.710;9.202;2023-04-01T02:15:42;7.60;99.90
5136;DHT22;2586;48.710;9.202;2023-04-01T02:18:12;7.60;1.00
5136;DHT22;2586;48.710;9.202;2023-04-01T02:20:38;7.60;99.90
5136;DHT22;2586;48.710;9.202;2023-04-01T02:23:06;7.50;1.00
5136;DHT22;2586;48.710;9.202;2023-04-01T02:25:35;7.50;1.00
5136;DHT22;2586;48.710;9.202;2023-04-01T02:28:04;7.50;1.00
5136;DHT22;2586;48.710;9.202;2023-04-01T02:30:34;7.50;1.00
5136;DHT22;2586;48.710;9.202;2023-04-01T02:33:01;7.50;99.90
5136;DHT22;2586;48.710;9.202;2023-04-01T02:35:28;7.50;99.90
5136;DHT22;2586;48.710;9.202;2023-04-01T02:37:54;7.50;13.40
5136;DHT22;2586;48.710;9.202;2023-04-01T02:40:21;7.40;99.90
5136;DHT22;2586;48.710;9.202;2023-04-01T02:42:47;7.40;99.90
5136;DHT22;2586;48.710;9.202;2023-04-01T02:45:13;7.40;99.90
5136;DHT22;2586;48.710;9.202;2023-04-01T02:47:40;7.40;1.00
5136;DHT22;2586;48.710;9.202;2023-04-01T02:50:06;7.40;1.00
5136;DHT22;2586;48.710;9.202;2023-04-01T02:52:32;7.40;97.40
5136;DHT22;2586;48.710;9.202;2023-04-01T02:54:57;7.40;99.90
5136;DHT22;2586;48.710;9.202;2023-04-01T02:57:23;7.40;1.00
5136;DHT22;2586;48.710;9.202;2023-04-01T02:59:49;7.30;99.90
5136;DHT22;2586;48.710;9.202;2023-04-01T03:02:15;7.30;99.90
5136;DHT22;2586;48.710;9.202;2023-04-01T03:04:41;7.30;99.90
5136;DHT22;2586;48.710;9.202;2023-04-01T03:07:07;7.30;99.90
5136;DHT22;2586;48.710;9.202;2023-04-01T03:09:33;7.20;99.90
5136;DHT22;2586;48.710;9.202;2023-04-01T03:11:59;7.20;99.90
5136;DHT22;2586;48.710;9.202;2023-04-01T03:14:25;7.20;99.90
5136;DHT22;2586;48.710;9.202;2023-04-01T03:16:50;7.20;99.90
5136;DHT22;2586;48.710;9.202;2023-04-01T03:19:16;7.20;99.90
5136;DHT22;2586;48.710;9.202;2023-04-01T03:21:41;7.30;1.00
5136;DHT22;2586;48.710;9.202;2023-04-01T03:24:07;7.30;1.00
5136;DHT22;2586;48.710;9.202;2023-04-01T03:26:33;7.20;99.90
5136;DHT22;2586;48.710;9.202;2023-04-01T03:28:58;7.20;99.90
5136;DHT22;2586;48.710;9.202;2023-04-01T03:31:24;7.20;63.30
5136;DHT22;2586;48.710;9.202;2023-04-01T03:33:50;7.20;99.90
5136;DHT22;2586;48.710;9.202;2023-04-01T03:36:16;7.20;99.90
5136;DHT22;2586;48.710;9.202;2023-04-01T03:38:42;7.20;1.00
5136;DHT22;2586;48.710;9.202;2023-04-01T03:41:12;7.20;1.00
5136;DHT22;2586;48.710;9.202;2023-04-01T03:43:37;7.20;1.00
5136;DHT22;2586;48.710;9.202;2023-04-01T03:46:03;7.20;1.00
5136;DHT22;2586;48.710;9.202;2023-04-01T03:48:28;7.20;1.00
5136;DHT22;2586;48.710;9.202;2023-04-01T03:50:54;7.10;1.00
5136;DHT22;2586;48.710;9.202;2023-04-01T03:53:20;7.20;99.90
5136;DHT22;2586;48.710;9.202;2023-04-01T03:55:45;7.20;1.00
5136;DHT22;2586;48.710;9.202;2023-04-01T03:58:12;7.20;99.90
5136;DHT22;2586;48.710;9.202;2023-04-01T04:00:37;7.20;99.90
5136;DHT22;2586;48.710;9.202;2023-04-01T04:03:03;7.10;99.90
5136;DHT22;2586;48.710;9.202;2023-04-01T04:05:28;7.10;99.90
5136;DHT22;2586;48.710;9.202;2023-04-01T04:07:54;7.00;99.90
5136;DHT22;2586;48.710;9.202;2023-04-01T04:10:20;6.90;1.00
5136;DHT22;2586;48.710;9.202;2023-04-01T04:12:49;6.90;1.00
5136;DHT22;2586;48.710;9.202;2023-04-01T04:15:15;6.90;1.00
5136;DHT22;2586;48.710;9.202;2023-04-01T04:17:41;6.80;1.00
5136;DHT22;2586;48.710;9.202;2023-04-01T04:20:07;6.70;1.00
5136;DHT22;2586;48.710;9.202;2023-04-01T04:22:33;6.70;21.30
5136;DHT22;2586;48.710;9.202;2023-04-01T04:24:59;6.80;1.00
5136;DHT22;2586;48.710;9.202;2023-04-01T04:27:24;6.80;1.00
5136;DHT22;2586;48.710;9.202;2023-04-01T04:29:50;6.80;1.00
5136;DHT22;2586;48.710;9.202;2023-04-01T04:32:15;6.80;1.00
5136;DHT22;2586;48.710;9.202;2023-04-01T04:34:41;6.70;1.00
5136;DHT22;2586;48.710;9.202;2023-04-01T04:37:07;6.70;1.00
5136;DHT22;2586;48.710;9.202;2023-04-01T04:39:32;6.70;99.90
5136;DHT22;2586;48.710;9.202;2023-04-01T04:41:58;6.60;99.90
5136;DHT22;2586;48.710;9.202;2023-04-01T04:44:23;6.60;1.00
5136;DHT22;2586;48.710;9.202;2023-04-01T04:46:49;6.60;1.00
5136;DHT22;2586;48.710;9.202;2023-04-01T04:49:15;6.60;1.00
5136;DHT22;2586;48.710;9.202;2023-04-01T04:51:40;6.60;1.00
5136;DHT22;2586;48.710;9.202;2023-04-01T04:54:06;6.70;1.00
5136;DHT22;2586;48.710;9.202;2023-04-01T04:56:32;6.80;1.00
5136;DHT22;2586;48.710;9.202;2023-04-01T04:58:58;6.80;1.00
5136;DHT22;2586;48.710;9.202;2023-04-01T05:01:24;6.80;1.00
5136;DHT22;2586;48.710;9.202;2023-04-01T05:03:50;6.80;1.00
5136;DHT22;2586;48.710;9.202;2023-04-01T05:06:17;6.80;1.00
5136;DHT22;2586;48.710;9.202;2023-04-01T05:08:44;6.90;1.00
5136;DHT22;2586;48.710;9.202;2023-04-01T05:11:12;6.90;99.90
5136;DHT22;2586;48.710;9.202;2023-04-01T05:13:38;6.90;1.00
5136;DHT22;2586;48.710;9.202;2023-04-01T05:16:08;6.90;1.00
5136;DHT22;2586;48.710;9.202;2023-04-01T05:18:34;6.90;1.00
5136;DHT22;2586;48.710;9.202;2023-04-01T05:20:59;6.90;96.80
5136;DHT22;2586;48.710;9.202;2023-04-01T05:23:25;7.00;1.00
5136;DHT22;2586;48.710;9.202;2023-04-01T05:25:51;7.00;99.90
5136;DHT22;2586;48.710;9.202;2023-04-01T05:28:18;7.00;1.00
5136;DHT22;2586;48.710;9.202;2023-04-01T05:30:45;7.10;1.00
5136;DHT22;2586;48.710;9.202;2023-04-01T05:33:12;7.10;1.00
5136;DHT22;2586;48.710;9.202;2023-04-01T05:35:39;7.10;99.90
5136;DHT22;2586;48.710;9.202;2023-04-01T05:38:04;7.20;99.90
5136;DHT22;2586;48.710;9.202;2023-04-01T05:40:31;7.20;1.00
5136;DHT22;2586;48.710;9.202;2023-04-01T05:42:57;7.30;1.00
5136;DHT22;2586;48.710;9.202;2023-04-01T05:45:23;7.40;99.90
5136;DHT22;2586;48.710;9.202;2023-04-01T05:47:49;7.40;99.90
5136;DHT22;2586;48.710;9.202;2023-04-01T05:50:15;7.40;27.80
5136;DHT22;2586;48.710;9.202;2023-04-01T05:52:40;7.50;99.90
5136;DHT22;2586;48.710;9.202;2023-04-01T05:55:06;7.50;1.00
5136;DHT22;2586;48.710;9.202;2023-04-01T05:57:32;7.50;1.00
5136;DHT22;2586;48.710;9.202;2023-04-01T05:59:58;7.50;1.00
5136;DHT22;2586;48.710;9.202;2023-04-01T06:02:23;7.60;1.00
5136;DHT22;2586;48.710;9.202;2023-04-01T06:04:49;7.70;99.90
5136;DHT22;2586;48.710;9.202;2023-04-01T06:07:19;7.70;99.90
5136;DHT22;2586;48.710;9.202;2023-04-01T06:09:45;7.80;92.30
5136;DHT22;2586;48.710;9.202;2023-04-01T06:23:02;8.10;99.90
5136;DHT22;2586;48.710;9.202;2023-04-01T06:37:04;8.30;1.00
5136;DHT22;2586;48.710;9.202;2023-04-01T06:39:42;8.30;1.00
5136;DHT22;2586;48.710;9.202;2023-04-01T06:42:29;8.40;1.00
5136;DHT22;2586;48.710;9.202;2023-04-01T06:45:10;8.40;1.00
5136;DHT22;2586;48.710;9.202;2023-04-01T06:51:36;8.50;1.00
5136;DHT22;2586;48.710;9.202;2023-04-01T06:54:17;8.50;1.00
5136;DHT22;2586;48.710;9.202;2023-04-01T06:56:26;8.50;1.00
5136;DHT22;2586;48.710;9.202;2023-04-01T06:59:02;8.50;5.60
5136;DHT22;2586;48.710;9.202;2023-04-01T07:01:38;8.40;1.00
5136;DHT22;2586;48.710;9.202;2023-04-01T07:04:11;8.40;1.00
5136;DHT22;2586;48.710;9.202;2023-04-01T07:09:25;8.40;1.00
5136;DHT22;2586;48.710;9.202;2023-04-01T07:11:53;8.40;92.70
5136;DHT22;2586;48.710;9.202;2023-04-01T07:14:29;8.40;1.00
5136;DHT22;2586;48.710;9.202;2023-04-01T07:17:00;8.40;1.00
5136;DHT22;2586;48.710;9.202;2023-04-01T07:19:42;8.60;1.00
5136;DHT22;2586;48.710;9.202;2023-04-01T07:22:33;8.50;1.00
5136;DHT22;2586;48.710;9.202;2023-04-01T07:25:24;8.60;16.70
5136;DHT22;2586;48.710;9.202;2023-04-01T07:27:53;8.60;44.80
5136;DHT22;2586;48.710;9.202;2023-04-01T07:30:22;8.60;99.90
5136;DHT22;2586;48.710;9.202;2023-04-01T07:43:36;8.60;99.90
5136;DHT22;2586;48.710;9.202;2023-04-01T07:49:44;8.60;99.90
5136;DHT22;2586;48.710;9.202;2023-04-01T07:53:05;8.70;99.90
5136;DHT22;2586;48.710;9.202;2023-04-01T07:55:23;8.70;1.00
5136;DHT22;2586;48.710;9.202;2023-04-01T07:58:00;8.80;99.90
5136;DHT22;2586;48.710;9.202;2023-04-01T08:00:37;8.80;1.00
5136;DHT22;2586;48.710;9.202;2023-04-01T08:06:00;8.80;99.90
5136;DHT22;2586;48.710;9.202;2023-04-01T08:11:25;8.90;1.00
5136;DHT22;2586;48.710;9.202;2023-04-01T08:14:02;8.90;1.00
5136;DHT22;2586;48.710;9.202;2023-04-01T08:16:56;8.90;99.90
5136;DHT22;2586;48.710;9.202;2023-04-01T08:19:47;9.00;99.90
5136;DHT22;2586;48.710;9.202;2023-04-01T08:24:56;8.90;99.90
5136;DHT22;2586;48.710;9.202;2023-04-01T08:27:37;8.90;1.00
5136;DHT22;2586;48.710;9.202;2023-04-01T08:30:17;8.90;1.00
5136;DHT22;2586;48.710;9.202;2023-04-01T08:32:50;8.90;69.20
5136;DHT22;2586;48.710;9.202;2023-04-01T08:35:31;9.00;1.00
5136;DHT22;2586;48.710;9.202;2023-04-01T08:38:04;9.00;99.90
5136;DHT22;2586;48.710;9.202;2023-04-01T08:40:40;9.00;89.60
5136;DHT22;2586;48.710;9.202;2023-04-01T08:48:36;8.80;1.00
5136;DHT22;2586;48.710;9.202;2023-04-01T08:54:16;8.70;1.00
5136;DHT22;2586;48.710;9.202;2023-04-01T09:00:05;8.50;99.90
5136;DHT22;2586;48.710;9.202;2023-04-01T09:02:59;8.40;1.00
5136;DHT22;2586;48.710;9.202;2023-04-01T09:08:36;8.30;99.90
5136;DHT22;2586;48.710;9.202;2023-04-01T09:14:17;8.40;99.90
5136;DHT22;2586;48.710;9.202;2023-04-01T09:19:52;8.70;99.90
5136;DHT22;2586;48.710;9.202;2023-04-01T09:22:34;8.90;1.00
5136;DHT22;2586;48.710;9.202;2023-04-01T09:25:15;9.10;99.90
5136;DHT22;2586;48.710;9.202;2023-04-01T09:31:01;9.40;99.90
5136;DHT22;2586;48.710;9.202;2023-04-01T09:33:49;9.50;1.00
5136;DHT22;2586;48.710;9.202;2023-04-01T09:38:57;9.80;99.90
5136;DHT22;2586;48.710;9.202;2023-04-01T09:41:44;10.10;1.00
5136;DHT22;2586;48.710;9.202;2023-04-01T09:44:48;9.60;1.00
5136;DHT22;2586;48.710;9.202;2023-04-01T09:53:19;9.20;1.00
5136;DHT22;2586;48.710;9.202;2023-04-01T09:58:43;9.20;99.90
5136;DHT22;2586;48.710;9.202;2023-04-01T10:10:26;9.20;99.90
5136;DHT22;2586;48.710;9.202;2023-04-01T10:18:50;9.20;42.90
5136;DHT22;2586;48.710;9.202;2023-04-01T10:37:55;9.80;99.90
5136;DHT22;2586;48.710;9.202;2023-04-01T10:40:44;9.80;1.00
5136;DHT22;2586;48.710;9.202;2023-04-01T10:46:38;10.20;99.90
5136;DHT22;2586;48.710;9.202;2023-04-01T10:54:49;10.80;99.90
5136;DHT22;2586;48.710;9.202;2023-04-01T10:57:45;11.10;99.90
5136;DHT22;2586;48.710;9.202;2023-04-01T11:00:38;10.90;78.90
5136;DHT22;2586;48.710;9.202;2023-04-01T11:20:19;10.80;99.90
5136;DHT22;2586;48.710;9.202;2023-04-01T11:25:50;10.90;89.90
5136;DHT22;2586;48.710;9.202;2023-04-01T11:28:24;10.90;99.90
5136;DHT22;2586;48.710;9.202;2023-04-01T11:31:22;10.90;96.30
5136;DHT22;2586;48.710;9.202;2023-04-01T11:34:05;11.10;1.00
5136;DHT22;2586;48.710;9.202;2023-04-01T11:39:54;11.00;1.00
5136;DHT22;2586;48.710;9.202;2023-04-01T11:42:46;11.00;1.00
5136;DHT22;2586;48.710;9.202;2023-04-01T11:45:44;11.20;1.00
5136;DHT22;2586;48.710;9.202;2023-04-01T11:48:20;11.20;1.00
5136;DHT22;2586;48.710;9.202;2023-04-01T12:08:15;10.50;1.00
5136;DHT22;2586;48.710;9.202;2023-04-01T12:11:15;10.50;1.00
5136;DHT22;2586;48.710;9.202;2023-04-01T12:13:53;10.70;76.60
5136;DHT22;2586;48.710;9.202;2023-04-01T12:16:40;10.80;1.00
5136;DHT22;2586;48.710;9.202;2023-04-01T12:24:49;10.90;1.00
5136;DHT22;2586;48.710;9.202;2023-04-01T12:37:59;11.30;1.00
5136;DHT22;2586;48.710;9.202;2023-04-01T12:51:19;11.80;99.90
5136;DHT22;2586;48.710;9.202;2023-04-01T12:54:20;12.10;99.90
5136;DHT22;2586;48.710;9.202;2023-04-01T12:57:28;12.10;99.90
5136;DHT22;2586;48.710;9.202;2023-04-01T13:08:37;12.30;99.90
5136;DHT22;2586;48.710;9.202;2023-04-01T13:11:13;12.30;99.90
5136;DHT22;2586;48.710;9.202;2023-04-01T13:17:20;12.00;99.90
5136;DHT22;2586;48.710;9.202;2023-04-01T13:19:58;11.80;99.90
5136;DHT22;2586;48.710;9.202;2023-04-01T13:27:51;11.00;99.90
5136;DHT22;2586;48.710;9.202;2023-04-01T13:33:11;11.10;99.90
5136;DHT22;2586;48.710;9.202;2023-04-01T13:43:48;11.20;99.90
5136;DHT22;2586;48.710;9.202;2023-04-01T13:46:22;11.00;99.90
5136;DHT22;2586;48.710;9.202;2023-04-01T14:00:32;11.30;99.90
5136;DHT22;2586;48.710;9.202;2023-04-01T14:06:06;11.70;99.90
5136;DHT22;2586;48.710;9.202;2023-04-01T14:11:19;12.10;99.90
5136;DHT22;2586;48.710;9.202;2023-04-01T14:13:59;12.20;99.90
5136;DHT22;2586;48.710;9.202;2023-04-01T14:30:51;11.30;99.90
5136;DHT22;2586;48.710;9.202;2023-04-01T14:33:42;11.30;99.90
5136;DHT22;2586;48.710;9.202;2023-04-01T14:36:53;11.20;99.90
5136;DHT22;2586;48.710;9.202;2023-04-01T14:47:58;11.20;99.90
5136;DHT22;2586;48.710;9.202;2023-04-01T14:50:28;11.20;99.90
5136;DHT22;2586;48.710;9.202;2023-04-01T14:55:50;11.10;99.90
5136;DHT22;2586;48.710;9.202;2023-04-01T14:58:18;11.20;99.90
5136;DHT22;2586;48.710;9.202;2023-04-01T15:08:30;10.70;99.90
5136;DHT22;2586;48.710;9.202;2023-04-01T15:11:19;10.70;99.90
5136;DHT22;2586;48.710;9.202;2023-04-01T15:16:50;10.60;99.90
5136;DHT22;2586;48.710;9.202;2023-04-01T15:22:40;10.80;99.90
5136;DHT22;2586;48.710;9.202;2023-04-01T15:25:30;11.00;99.90
5136;DHT22;2586;48.710;9.202;2023-04-01T15:28:25;11.00;99.90
5136;DHT22;2586;48.710;9.202;2023-04-01T15:36:33;10.70;99.90
5136;DHT22;2586;48.710;9.202;2023-04-01T15:39:20;10.70;99.90
5136;DHT22;2586;48.710;9.202;2023-04-01T15:58:17;10.40;1.00
5136;DHT22;2586;48.710;9.202;2023-04-01T16:00:54;10.40;99.90
5136;DHT22;2586;48.710;9.202;2023-04-01T16:09:21;10.30;1.00
5136;DHT22;2586;48.710;9.202;2023-04-01T16:12:12;10.30;1.00
5136;DHT22;2586;48.710;9.202;2023-04-01T16:22:39;10.10;99.90
5136;DHT22;2586;48.710;9.202;2023-04-01T16:25:40;10.10;99.90
5136;DHT22;2586;48.710;9.202;2023-04-01T16:28:31;10.00;99.90
5136;DHT22;2586;48.710;9.202;2023-04-01T16:33:55;9.90;99.90
5136;DHT22;2586;48.710;9.202;2023-04-01T16:36:36;9.90;65.20
5136;DHT22;2586;48.710;9.202;2023-04-01T16:41:52;9.90;99.90
5136;DHT22;2586;48.710;9.202;2023-04-01T16:44:25;9.90;99.90
5136;DHT22;2586;48.710;9.202;2023-04-01T16:46:53;9.90;99.90
5136;DHT22;2586;48.710;9.202;2023-04-01T16:49:30;9.90;99.90
5136;DHT22;2586;48.710;9.202;2023-04-01T16:52:04;10.00;99.90
5136;DHT22;2586;48.710;9.202;2023-04-01T16:54:59;9.90;96.40
5136;DHT22;2586;48.710;9.202;2023-04-01T16:57:50;9.90;99.90
5136;DHT22;2586;48.710;9.202;2023-04-01T17:00:44;10.00;87.80
5136;DHT22;2586;48.710;9.202;2023-04-01T17:03:19;10.00;1.00
5136;DHT22;2586;48.710;9.202;2023-04-01T17:08:45;10.10;1.00
5136;DHT22;2586;48.710;9.202;2023-04-01T17:11:19;10.00;1.00
5136;DHT22;2586;48.710;9.202;2023-04-01T17:25:30;10.00;1.00
5136;DHT22;2586;48.710;9.202;2023-04-01T17:28:16;9.90;1.00
5136;DHT22;2586;48.710;9.202;2023-04-01T17:31:10;9.90;1.00
5136;DHT22;2586;48.710;9.202;2023-04-01T17:45:17;9.70;24.30
5136;DHT22;2586;48.710;9.202;2023-04-01T17:53:36;9.50;99.90
5136;DHT22;2586;48.710;9.202;2023-04-01T17:56:36;9.50;99.90
5136;DHT22;2586;48.710;9.202;2023-04-01T17:59:37;9.50;99.90
5136;DHT22;2586;48.710;9.202;2023-04-01T18:10:31;9.40;1.00
5136;DHT22;2586;48.710;9.202;2023-04-01T18:18:18;9.50;1.00
5136;DHT22;2586;48.710;9.202;2023-04-01T18:23:43;9.40;99.90
5136;DHT22;2586;48.710;9.202;2023-04-01T18:26:23;9.40;99.90
5136;DHT22;2586;48.710;9.202;2023-04-01T18:28:54;9.40;1.00
5136;DHT22;2586;48.710;9.202;2023-04-01T18:31:24;9.30;1.00
5136;DHT22;2586;48.710;9.202;2023-04-01T18:36:46;9.20;99.90
5136;DHT22;2586;48.710;9.202;2023-04-01T18:39:39;9.00;99.90
5136;DHT22;2586;48.710;9.202;2023-04-01T18:42:33;8.90;1.00
5136;DHT22;2586;48.710;9.202;2023-04-01T18:45:26;8.80;1.00
5136;DHT22;2586;48.710;9.202;2023-04-01T18:51:20;8.70;1.00
5136;DHT22;2586;48.710;9.202;2023-04-01T18:57:01;8.70;1.00
5136;DHT22;2586;48.710;9.202;2023-04-01T18:59:28;8.70;1.00
5136;DHT22;2586;48.710;9.202;2023-04-01T19:04:45;8.50;99.90
5136;DHT22;2586;48.710;9.202;2023-04-01T19:12:56;8.20;1.00
5136;DHT22;2586;48.710;9.202;2023-04-01T19:36:56;7.80;1.00
5136;DHT22;2586;48.710;9.202;2023-04-01T19:42:43;7.80;1.00
5136;DHT22;2586;48.710;9.202;2023-04-01T19:57:09;7.70;99.90
5136;DHT22;2586;48.710;9.202;2023-04-01T19:59:44;7.70;99.90
5136;DHT22;2586;48.710;9.202;2023-04-01T20:05:43;7.70;99.90
5136;DHT22;2586;48.710;9.202;2023-04-01T20:14:26;7.70;99.90
5136;DHT22;2586;48.710;9.202;2023-04-01T20:19:53;7.70;1.00
5136;DHT22;2586;48.710;9.202;2023-04-01T20:24:58;7.70;1.00
5136;DHT22;2586;48.710;9.202;2023-04-01T20:27:30;7.60;1.00
5136;DHT22;2586;48.710;9.202;2023-04-01T20:44:41;7.50;18.60
5136;DHT22;2586;48.710;9.202;2023-04-01T20:58:00;7.50;99.90
5136;DHT22;2586;48.710;9.202;2023-04-01T21:12:07;7.60;99.90
5136;DHT22;2586;48.710;9.202;2023-04-01T21:17:47;7.70;1.00
5136;DHT22;2586;48.710;9.202;2023-04-01T21:20:35;7.70;99.90
5136;DHT22;2586;48.710;9.202;2023-04-01T21:26:11;7.70;99.90
5136;DHT22;2586;48.710;9.202;2023-04-01T21:36:37;7.80;99.90
5136;DHT22;2586;48.710;9.202;2023-04-01T21:42:20;7.80;1.00
5136;DHT22;2586;48.710;9.202;2023-04-01T21:45:10;7.80;1.00
5136;DHT22;2586;48.710;9.202;2023-04-01T21:58:57;7.90;99.90
5136;DHT22;2586;48.710;9.202;2023-04-01T22:02:02;7.80;99.90
5136;DHT22;2586;48.710;9.202;2023-04-01T22:07:29;7.90;1.00
5136;DHT22;2586;48.710;9.202;2023-04-01T22:12:46;7.90;99.90
5136;DHT22;2586;48.710;9.202;2023-04-01T22:18:06;7.80;99.90
5136;DHT22;2586;48.710;9.202;2023-04-01T22:20:44;7.90;99.90
5136;DHT22;2586;48.710;9.202;2023-04-01T22:23:21;7.80;99.90
5136;DHT22;2586;48.710;9.202;2023-04-01T22:26:06;7.90;99.90
5136;DHT22;2586;48.710;9.202;2023-04-01T22:31:41;7.80;99.90
5136;DHT22;2586;48.710;9.202;2023-04-01T22:34:21;7.80;99.90
5136;DHT22;2586;48.710;9.202;2023-04-01T22:37:10;7.80;99.90
5136;DHT22;2586;48.710;9.202;2023-04-01T22:42:28;7.80;99.90
5136;DHT22;2586;48.710;9.202;2023-04-01T22:50:43;7.80;1.00
5136;DHT22;2586;48.710;9.202;2023-04-01T22:56:01;7.80;99.90
5136;DHT22;2586;48.710;9.202;2023-04-01T22:58:38;7.80;15.90
5136;DHT22;2586;48.710;9.202;2023-04-01T23:01:12;7.80;1.00
5136;DHT22;2586;48.710;9.202;2023-04-01T23:03:41;7.70;40.50
5136;DHT22;2586;48.710;9.202;2023-04-01T23:06:23;7.70;1.00
5136;DHT22;2586;48.710;9.202;2023-04-01T23:09:07;7.60;26.90
5136;DHT22;2586;48.710;9.202;2023-04-01T23:17:34;7.40;99.90
5136;DHT22;2586;48.710;9.202;2023-04-01T23:19:58;7.30;1.00
5136;DHT22;2586;48.710;9.202;2023-04-01T23:23:03;7.20;1.00
5136;DHT22;2586;48.710;9.202;2023-04-01T23:33:20;7.10;28.10
5136;DHT22;2586;48.710;9.202;2023-04-01T23:36:13;7.00;99.90
5136;DHT22;2586;48.710;9.202;2023-04-01T23:38:41;7.00;99.90
5136;DHT22;2586;48.710;9.202;2023-04-01T23:41:16;7.00;99.90
5136;DHT22;2586;48.710;9.202;2023-04-01T23:43:43;7.00;99.90
5136;DHT22;2586;48.710;9.202;2023-04-01T23:46:12;7.00;99.90
5136;DHT22;2586;48.710;9.202;2023-04-01T23:48:43;7.00;99.90
5136;DHT22;2586;48.710;9.202;2023-04-01T23:51:38;6.90;99.90
5136;DHT22;2586;48.710;9.202;2023-04-01T23:54:14;6.90;1.00
5136;DHT22;2586;48.710;9.202;2023-04-01T23:56:48;6.90;1.00
5136;DHT22;2586;48.710;9.202;2023-04-01T23:59:29;6.90;1.00
